Time;durP1;ratioP1;P1;durP2;ratioP2;P2;SDS_P1;SDS_P2;PMS_P1;PMS_P2;Temp;Humidity;BMP_temperature;BMP_pressure;BME280_temperature;BME280_humidity;BME280_pressure;Samples;Min_cycle;Max_cycle;Signal;HPM_P1;HPM_P2
2022/09/28 00:01:42;;;;;;;6.53;5.83;;;;;;;19.82;86.80;98402.06;4975354;28;20233;-65
2022/09/28 00:04:09;;;;;;;6.20;5.47;;;;;;;19.81;86.51;98400.47;4975130;28;20672;-65
2022/09/28 00:06:35;;;;;;;6.27;5.80;;;;;;;19.78;85.90;98412.63;4974716;28;20202;-65
2022/09/28 00:09:02;;;;;;;6.70;6.17;;;;;;;19.75;86.28;98406.97;4974869;28;20201;-64
2022/09/28 00:11:29;;;;;;;6.67;6.23;;;;;;;19.80;86.25;98409.63;4975647;28;20206;-66
2022/09/28 00:14:01;;;;;;;6.90;6.30;;;;;;;19.81;85.94;98411.25;4973767;28;20199;-65
2022/09/28 00:16:31;;;;;;;6.93;6.00;;;;;;;19.80;85.79;98407.72;4972785;28;20195;-64
2022/09/28 00:18:59;;;;;;;6.60;6.10;;;;;;;19.75;85.78;98406.97;4972907;28;20187;-64
2022/09/28 00:21:27;;;;;;;7.60;6.13;;;;;;;19.75;85.87;98405.09;4973722;28;20219;-64
2022/09/28 00:24:14;;;;;;;6.40;5.90;;;;;;;19.72;85.98;98394.88;4971925;28;21103;-66
2022/09/28 00:26:45;;;;;;;6.20;5.70;;;;;;;19.73;85.95;98388.38;4973991;28;20194;-67
2022/09/28 00:29:18;;;;;;;6.17;5.57;;;;;;;19.67;86.65;98394.09;4970350;28;20255;-66
2022/09/28 00:31:47;;;;;;;6.20;5.67;;;;;;;19.61;86.41;98389.84;4969258;28;20281;-65
2022/09/28 00:34:15;;;;;;;6.90;6.30;;;;;;;19.56;86.61;98385.28;4966769;28;20210;-69
2022/09/28 00:36:45;;;;;;;7.37;5.97;;;;;;;19.59;86.57;98386.59;4970300;28;20625;-68
2022/09/28 00:39:13;;;;;;;6.30;5.80;;;;;;;19.57;85.94;98378.00;4967411;28;21083;-68
2022/09/28 00:41:40;;;;;;;6.63;5.87;;;;;;;19.49;86.08;98392.06;4969891;28;20230;-65
2022/09/28 00:44:39;;;;;;;6.37;5.87;;;;;;;19.36;86.34;98379.25;4970503;28;20199;-66
2022/09/28 00:47:27;;;;;;;6.73;6.13;;;;;;;19.29;86.96;98381.44;4971529;28;20499;-64
2022/09/28 00:49:59;;;;;;;6.97;6.47;;;;;;;19.30;86.97;98372.25;4971545;28;20183;-64
2022/09/28 00:52:32;;;;;;;7.57;6.13;;;;;;;19.28;87.10;98379.81;4972977;28;20665;-65
2022/09/28 00:55:01;;;;;;;7.30;6.30;;;;;;;19.27;87.08;98364.72;4969667;28;20194;-69
2022/09/28 00:57:29;;;;;;;6.33;5.93;;;;;;;19.21;87.27;98365.84;4968494;28;20749;-65
2022/09/28 00:59:56;;;;;;;7.97;5.80;;;;;;;19.25;87.36;98369.59;4971328;28;20254;-69
2022/09/28 01:02:24;;;;;;;6.20;5.77;;;;;;;19.17;87.73;98372.84;4968523;28;20259;-66
2022/09/28 01:04:52;;;;;;;6.57;5.97;;;;;;;19.14;87.93;98378.78;4972145;28;20254;-64
2022/09/28 01:07:19;;;;;;;6.40;6.00;;;;;;;19.13;88.10;98371.81;4974464;28;20255;-64
2022/09/28 01:09:46;;;;;;;7.20;6.33;;;;;;;19.09;88.98;98381.50;4974030;28;20619;-64
2022/09/28 01:12:13;;;;;;;5.67;5.37;;;;;;;19.11;88.61;98379.38;4974134;28;20208;-64
2022/09/28 01:14:41;;;;;;;6.70;6.30;;;;;;;19.06;88.24;98373.97;4974177;28;20199;-64
2022/09/28 01:17:13;;;;;;;5.83;5.53;;;;;;;18.95;88.06;98370.53;4973661;28;20199;-64
2022/09/28 01:20:18;;;;;;;7.00;5.90;;;;;;;18.84;88.09;98368.19;4973816;28;20666;-65
2022/09/28 01:23:17;;;;;;;7.37;5.43;;;;;;;18.78;88.51;98353.94;4974141;28;20274;-64
2022/09/28 01:25:53;;;;;;;7.00;6.00;;;;;;;18.88;88.22;98369.25;4973819;28;20199;-64
2022/09/28 01:28:25;;;;;;;6.30;5.80;;;;;;;18.85;87.68;98369.78;4973998;28;20244;-64
2022/09/28 01:31:02;;;;;;;7.30;6.00;;;;;;;18.77;87.87;98367.66;4974297;28;20608;-64
2022/09/28 01:33:34;;;;;;;6.43;5.97;;;;;;;18.74;89.12;98362.88;4973697;28;20192;-64
2022/09/28 01:36:07;;;;;;;6.30;5.80;;;;;;;18.76;88.60;98368.75;4974350;28;20276;-64
2022/09/28 01:38:39;;;;;;;8.80;5.60;;;;;;;18.74;88.63;98362.88;4974345;28;20193;-64
2022/09/28 01:41:07;;;;;;;7.60;7.00;;;;;;;18.67;88.83;98363.13;4974297;28;20217;-64
2022/09/28 01:43:39;;;;;;;6.57;5.97;;;;;;;18.62;89.49;98365.84;4973525;28;20203;-65
2022/09/28 01:46:12;;;;;;;8.10;6.43;;;;;;;18.65;89.65;98361.81;4974722;28;20199;-64
2022/09/28 01:48:46;;;;;;;6.73;6.23;;;;;;;18.61;89.69;98360.75;4973409;28;20189;-66
2022/09/28 01:51:19;;;;;;;6.47;5.87;;;;;;;18.61;90.08;98364.25;4974141;28;20201;-65
2022/09/28 01:53:50;;;;;;;7.00;6.40;;;;;;;18.61;89.51;98353.50;4973913;28;20248;-64
2022/09/28 01:56:25;;;;;;;7.13;6.63;;;;;;;18.58;89.60;98353.25;4973528;28;20234;-64
2022/09/28 01:58:58;;;;;;;6.77;6.23;;;;;;;18.36;89.57;98339.31;4973666;28;20246;-65
2022/09/28 02:01:29;;;;;;;6.70;5.97;;;;;;;18.44;91.09;98352.19;4973786;28;20273;-65
2022/09/28 02:04:01;;;;;;;8.23;5.90;;;;;;;18.48;90.15;98342.50;4973213;28;20255;-65
2022/09/28 02:06:33;;;;;;;6.77;6.27;;;;;;;18.44;89.77;98347.63;4973214;28;20192;-65
2022/09/28 02:09:05;;;;;;;6.63;6.13;;;;;;;18.45;89.93;98367.25;4973057;28;20204;-65
2022/09/28 02:11:36;;;;;;;6.50;6.10;;;;;;;18.39;90.22;98365.66;4972406;28;20261;-65
2022/09/28 02:14:07;;;;;;;7.40;6.80;;;;;;;18.35;89.77;98369.97;4971736;28;20191;-65
2022/09/28 02:16:39;;;;;;;6.93;6.43;;;;;;;18.31;90.38;98369.69;4969915;28;20645;-65
2022/09/28 02:19:08;;;;;;;9.10;6.53;;;;;;;18.14;89.86;98347.69;4970982;28;20282;-65
2022/09/28 02:21:42;;;;;;;7.27;6.53;;;;;;;18.25;90.73;98369.97;4970021;28;20220;-65
2022/09/28 02:24:16;;;;;;;9.03;5.67;;;;;;;18.27;89.98;98381.25;4968021;28;20197;-65
2022/09/28 02:26:46;;;;;;;6.77;6.37;;;;;;;18.26;89.82;98383.13;4966283;28;20777;-67
2022/09/28 02:29:14;;;;;;;7.17;6.50;;;;;;;18.26;89.73;98382.34;4967802;28;20643;-66
2022/09/28 02:31:41;;;;;;;6.87;6.27;;;;;;;18.24;89.64;98385.28;4967380;28;20204;-66
2022/09/28 02:34:09;;;;;;;6.10;5.60;;;;;;;18.37;90.62;98392.00;4966195;28;20257;-68
2022/09/28 02:36:36;;;;;;;8.00;5.40;;;;;;;18.51;90.46;98390.38;4965830;28;20199;-67
2022/09/28 02:39:03;;;;;;;6.10;5.63;;;;;;;18.60;89.44;98400.28;4967355;28;20208;-66
2022/09/28 02:41:46;;;;;;;6.30;5.80;;;;;;;18.47;87.94;98392.00;4965280;28;20226;-66
2022/09/28 02:44:29;;;;;;;6.53;5.60;;;;;;;18.40;87.54;98391.47;4968451;28;20608;-66
2022/09/28 02:47:01;;;;;;;11.30;5.83;;;;;;;18.37;88.23;98390.13;4969452;28;20191;-66
2022/09/28 02:49:35;;;;;;;6.20;5.63;;;;;;;18.28;88.66;98380.16;4969644;28;20192;-65
2022/09/28 02:52:15;;;;;;;6.77;6.23;;;;;;;18.28;88.86;98381.00;4971030;28;20297;-65
2022/09/28 02:55:13;;;;;;;7.50;6.70;;;;;;;18.17;88.64;98379.38;4970145;28;20666;-64
2022/09/28 02:57:56;;;;;;;7.07;6.07;;;;;;;18.17;88.68;98375.91;4968816;28;20202;-68
2022/09/28 03:00:25;;;;;;;7.03;6.43;;;;;;;18.14;89.31;98369.19;4970225;28;20277;-66
2022/09/28 03:03:01;;;;;;;9.97;6.50;;;;;;;18.16;88.70;98367.03;4969637;28;20234;-65
2022/09/28 03:05:36;;;;;;;8.53;6.17;;;;;;;18.11;88.68;98363.53;4971219;28;20221;-65
2022/09/28 03:08:11;;;;;;;9.20;6.50;;;;;;;18.18;88.64;98375.63;4972598;28;20540;-65
2022/09/28 03:10:42;;;;;;;5.83;5.43;;;;;;;18.14;88.51;98379.13;4972445;28;20611;-65
2022/09/28 03:13:11;;;;;;;5.90;5.37;;;;;;;18.10;89.08;98383.44;4973204;28;20620;-65
2022/09/28 03:15:40;;;;;;;6.53;5.90;;;;;;;18.07;89.26;98378.59;4973071;28;20196;-65
2022/09/28 03:18:07;;;;;;;8.20;6.00;;;;;;;18.17;89.10;98400.09;4972317;28;20196;-65
2022/09/28 03:20:34;;;;;;;5.90;5.40;;;;;;;18.12;89.49;98397.41;4972534;28;20623;-64
2022/09/28 03:23:01;;;;;;;6.30;5.80;;;;;;;18.14;89.22;98401.44;4972517;28;20286;-65
2022/09/28 03:25:28;;;;;;;7.77;6.00;;;;;;;18.17;88.96;98405.47;4988288;28;20199;-65
2022/09/28 03:27:55;;;;;;;5.80;5.30;;;;;;;18.17;88.70;98402.78;4991988;28;20190;-65
2022/09/28 03:30:22;;;;;;;6.47;5.87;;;;;;;18.12;89.23;98402.78;4991886;28;20213;-64
2022/09/28 03:32:57;;;;;;;5.70;5.40;;;;;;;18.13;89.24;98399.03;4992013;28;20286;-65
2022/09/28 03:35:23;;;;;;;5.50;5.10;;;;;;;18.11;89.02;98393.91;4991930;28;20190;-65
2022/09/28 03:37:54;;;;;;;6.43;5.83;;;;;;;18.08;88.59;98393.63;4992270;28;20293;-65
2022/09/28 03:40:21;;;;;;;6.37;5.10;;;;;;;18.14;88.76;98401.44;4994102;28;20187;-65
2022/09/28 03:42:47;;;;;;;6.47;5.87;;;;;;;18.10;88.08;98394.19;4995943;28;20377;-66
2022/09/28 03:45:14;;;;;;;7.23;5.90;;;;;;;17.98;89.30;98401.72;4995278;28;20281;-65
2022/09/28 03:47:45;;;;;;;5.57;5.27;;;;;;;17.96;88.99;98410.06;4995707;28;20253;-66
2022/09/28 03:50:14;;;;;;;13.33;5.87;;;;;;;17.96;90.29;98404.69;4995473;28;20245;-65
2022/09/28 03:52:41;;;;;;;7.13;5.00;;;;;;;18.27;93.08;98410.81;4995058;28;20714;-65
2022/09/28 03:55:08;;;;;;;5.80;5.20;;;;;;;18.61;87.92;98411.84;4995003;28;20190;-65
2022/09/28 03:57:35;;;;;;;9.73;5.53;;;;;;;18.83;88.41;98415.00;4994857;28;20199;-68
2022/09/28 04:00:02;;;;;;;5.77;4.67;;;;;;;19.19;84.96;98416.47;4995362;28;20195;-68
2022/09/28 04:02:29;;;;;;;7.63;5.33;;;;;;;19.53;83.17;98415.47;4994985;28;20226;-68
2022/09/28 04:04:56;;;;;;;7.97;5.60;;;;;;;19.75;81.96;98417.75;4985012;28;20193;-69
2022/09/28 04:07:24;;;;;;;7.67;5.43;;;;;;;19.64;80.31;98416.22;4975760;28;20195;-69
2022/09/28 04:09:50;;;;;;;6.90;5.50;;;;;;;19.46;80.24;98414.19;4975073;28;20207;-68
2022/09/28 04:12:17;;;;;;;5.60;5.10;;;;;;;19.30;81.13;98409.97;4972364;28;20205;-70
2022/09/28 04:14:44;;;;;;;6.43;5.13;;;;;;;19.13;81.13;98410.31;4970897;28;20273;-74
2022/09/28 04:17:10;;;;;;;12.90;5.37;;;;;;;19.08;80.85;98417.59;4971650;28;20195;-72
2022/09/28 04:19:37;;;;;;;9.90;5.67;;;;;;;18.84;80.77;98427.38;4968755;28;20199;-73
2022/09/28 04:22:04;;;;;;;12.43;6.43;;;;;;;18.52;82.37;98418.88;4969148;28;20282;-70
2022/09/28 04:24:32;;;;;;;9.33;6.70;;;;;;;18.39;83.46;98424.81;4969037;28;20196;-73
2022/09/28 04:29:42;;;;;;;9.17;6.17;;;;;;;18.11;84.30;98428.03;4969899;28;20192;-69
2022/09/28 04:32:10;;;;;;;13.03;6.40;;;;;;;17.96;84.83;98426.16;4972082;28;20254;-69
2022/09/28 04:34:36;;;;;;;13.50;7.60;;;;;;;17.94;85.90;98420.28;4968122;28;20195;-67
2022/09/28 04:37:03;;;;;;;9.50;8.00;;;;;;;17.95;86.84;98426.44;4971347;28;20259;-67
2022/09/28 04:39:31;;;;;;;24.97;7.73;;;;;;;17.89;86.71;98439.06;4967244;28;20254;-72
2022/09/28 04:41:58;;;;;;;17.60;7.43;;;;;;;17.89;87.23;98444.44;4968499;28;20662;-73
2022/09/28 04:44:25;;;;;;;10.67;6.27;;;;;;;17.84;88.06;98451.72;4974514;28;20234;-72
2022/09/28 04:46:52;;;;;;;10.10;6.47;;;;;;;17.59;87.61;98440.91;4990466;28;20753;-70
2022/09/28 04:49:18;;;;;;;9.73;6.23;;;;;;;17.51;90.35;98454.88;4990556;28;20265;-71
2022/09/28 04:51:45;;;;;;;6.53;6.00;;;;;;;17.37;89.20;98462.59;4986733;28;20633;-73
2022/09/28 04:54:12;;;;;;;11.07;6.03;;;;;;;17.07;90.03;98461.69;4991018;28;20622;-71
2022/09/28 04:56:40;;;;;;;16.27;6.73;;;;;;;17.02;92.40;98462.47;4988687;28;20205;-74
2022/09/28 04:59:07;;;;;;;6.93;6.37;;;;;;;17.13;92.97;98457.94;4989236;28;20663;-76
2022/09/28 05:01:34;;;;;;;8.43;5.90;;;;;;;17.58;91.75;98471.53;4991132;28;20199;-68
2022/09/28 05:04:01;;;;;;;5.90;5.40;;;;;;;18.03;88.94;98488.53;4986485;28;20278;-73
2022/09/28 05:06:29;;;;;;;8.00;7.30;;;;;;;18.47;86.76;98488.81;4972105;28;20218;-67
2022/09/28 05:08:57;;;;;;;7.33;5.13;;;;;;;18.95;83.33;98486.25;4973861;28;20651;-69
2022/09/28 05:11:23;;;;;;;14.03;5.30;;;;;;;19.55;80.00;98485.22;4973804;28;20621;-63
2022/09/28 05:13:51;;;;;;;6.83;4.87;;;;;;;19.94;78.71;98483.38;4973736;28;20195;-66
2022/09/28 05:16:19;;;;;;;5.30;4.80;;;;;;;20.69;76.89;98485.44;4983825;28;20197;-66
2022/09/28 05:18:46;;;;;;;5.70;3.73;;;;;;;21.57;74.07;98492.00;4976448;28;20679;-65
2022/09/28 05:21:14;;;;;;;9.20;3.90;;;;;;;22.21;70.63;98491.34;4987042;28;20690;-64
2022/09/28 05:23:45;;;;;;;8.07;4.13;;;;;;;22.87;66.40;98498.03;4992974;28;20655;-65
2022/09/28 05:26:12;;;;;;;11.57;4.37;;;;;;;23.40;64.10;98499.16;4983303;28;20749;-64
2022/09/28 05:28:39;;;;;;;4.83;4.53;;;;;;;23.86;61.48;98499.81;4971246;28;20257;-65
2022/09/28 05:31:08;;;;;;;20.17;5.43;;;;;;;23.81;61.52;98513.44;4978668;28;20191;-65
2022/09/28 05:33:35;;;;;;;10.37;4.20;;;;;;;23.39;62.50;98503.00;4982418;28;20208;-64
2022/09/28 05:36:02;;;;;;;4.37;3.87;;;;;;;23.45;61.99;98515.34;4977327;28;20196;-64
2022/09/28 05:38:30;;;;;;;8.60;3.90;;;;;;;23.57;62.85;98512.13;4972595;28;20204;-69
2022/09/28 05:40:57;;;;;;;11.20;4.17;;;;;;;23.61;61.94;98513.91;4971203;28;20238;-63
2022/09/28 05:43:24;;;;;;;3.53;3.23;;;;;;;23.98;61.70;98508.22;4971237;28;20227;-62
2022/09/28 05:45:51;;;;;;;9.63;3.73;;;;;;;24.53;60.03;98527.78;4971504;28;20207;-64
2022/09/28 05:48:19;;;;;;;6.50;4.23;;;;;;;24.98;57.57;98531.28;4969623;28;20216;-63
2022/09/28 05:50:50;;;;;;;7.80;4.27;;;;;;;25.37;57.35;98528.59;4980167;28;20201;-62
2022/09/28 05:53:17;;;;;;;4.63;3.83;;;;;;;25.58;54.62;98529.59;4989272;28;21037;-62
2022/09/28 05:55:44;;;;;;;7.13;4.20;;;;;;;25.77;53.52;98539.13;4988152;28;20191;-64
2022/09/28 05:58:10;;;;;;;9.10;3.57;;;;;;;26.15;54.14;98539.31;4987971;28;20545;-64
2022/09/28 06:00:37;;;;;;;4.53;2.77;;;;;;;26.14;53.38;98543.19;4979836;28;20198;-69
2022/09/28 06:03:07;;;;;;;6.37;3.13;;;;;;;26.21;52.77;98532.63;4968880;28;20226;-62
2022/09/28 06:05:35;;;;;;;7.30;2.80;;;;;;;26.30;51.71;98553.25;4968454;28;20207;-67
2022/09/28 06:08:04;;;;;;;11.83;3.33;;;;;;;26.00;52.83;98542.53;4969050;28;20227;-69
2022/09/28 06:10:31;;;;;;;4.57;3.73;;;;;;;25.68;52.69;98535.56;4965625;28;20195;-66
2022/09/28 06:12:58;;;;;;;2.73;2.53;;;;;;;25.56;53.54;98535.34;4966708;28;20206;-64
2022/09/28 06:15:27;;;;;;;12.13;3.30;;;;;;;25.53;53.96;98516.16;4968741;28;20195;-65
2022/09/28 06:17:57;;;;;;;3.97;2.77;;;;;;;25.91;52.18;98538.94;4966129;28;20262;-69
2022/09/28 06:20:25;;;;;;;5.10;2.77;;;;;;;25.87;53.75;98527.91;4972588;28;20253;-67
2022/09/28 06:22:54;;;;;;;8.80;2.70;;;;;;;25.71;54.09;98525.94;4984789;28;20269;-67
2022/09/28 06:25:21;;;;;;;11.53;2.90;;;;;;;25.99;53.53;98532.75;4986629;28;20198;-63
2022/09/28 06:27:56;;;;;;;3.50;2.57;;;;;;;26.05;52.77;98534.22;4983450;28;20199;-63
2022/09/28 06:30:25;;;;;;;2.57;2.27;;;;;;;25.95;51.78;98538.03;4968679;28;20685;-63
2022/09/28 06:32:55;;;;;;;4.17;2.07;;;;;;;25.86;52.52;98525.50;4966591;28;20195;-68
2022/09/28 06:35:22;;;;;;;23.37;4.17;;;;;;;26.01;52.12;98525.09;4968416;28;20265;-66
2022/09/28 06:37:49;;;;;;;7.00;2.17;;;;;;;26.30;53.39;98530.69;4967456;28;20199;-64
2022/09/28 06:40:17;;;;;;;7.53;2.40;;;;;;;26.60;52.38;98537.88;4968455;28;20246;-65
2022/09/28 06:42:44;;;;;;;3.00;2.33;;;;;;;26.83;51.05;98533.84;4967415;28;21050;-63
2022/09/28 06:45:11;;;;;;;5.43;2.30;;;;;;;27.08;49.36;98549.31;4969940;28;20258;-64
2022/09/28 06:47:38;;;;;;;5.20;2.30;;;;;;;27.37;48.65;98550.19;4968272;28;20198;-63
2022/09/28 06:50:13;;;;;;;5.20;2.17;;;;;;;27.73;47.84;98555.16;4969663;28;20628;-64
2022/09/28 06:52:40;;;;;;;3.47;2.17;;;;;;;28.11;46.24;98553.97;4968133;28;20238;-66
2022/09/28 06:55:07;;;;;;;2.40;2.17;;;;;;;28.27;46.16;98546.75;4969546;28;20209;-63
2022/09/28 06:57:35;;;;;;;3.57;3.37;;;;;;;28.55;44.24;98547.03;4969269;28;20191;-65
2022/09/28 07:00:02;;;;;;;5.00;2.93;;;;;;;28.69;44.13;98555.72;4968189;28;20195;-66
2022/09/28 07:02:30;;;;;;;6.70;3.27;;;;;;;28.74;44.14;98537.19;4970251;28;20225;-62
2022/09/28 07:04:56;;;;;;;2.70;2.50;;;;;;;28.80;44.15;98522.19;4969429;28;20223;-68
2022/09/28 07:07:23;;;;;;;6.70;2.50;;;;;;;28.90;43.36;98531.84;4970014;28;20195;-70
2022/09/28 07:09:53;;;;;;;3.63;2.50;;;;;;;28.79;43.86;98531.50;4966555;28;20584;-62
2022/09/28 07:12:20;;;;;;;7.67;2.83;;;;;;;28.83;44.11;98528.91;4970121;28;20250;-61
2022/09/28 07:14:54;;;;;;;4.53;2.77;;;;;;;28.97;43.94;98523.91;4976601;28;20199;-62
2022/09/28 07:17:21;;;;;;;5.17;2.20;;;;;;;29.06;43.31;98519.16;4972074;28;20187;-68
2022/09/28 07:19:51;;;;;;;6.13;2.27;;;;;;;29.27;42.76;98534.34;4974001;28;20207;-64
2022/09/28 07:22:18;;;;;;;8.23;2.60;;;;;;;29.44;42.46;98525.13;4990671;28;20203;-62
2022/09/28 07:24:45;;;;;;;11.93;2.77;;;;;;;29.27;42.31;98526.13;4993399;28;20249;-63
2022/09/28 07:27:12;;;;;;;4.30;2.50;;;;;;;29.25;42.30;98522.16;4991653;28;20629;-65
2022/09/28 07:29:38;;;;;;;4.00;2.57;;;;;;;29.35;42.42;98518.16;4975494;28;20199;-65
2022/09/28 07:32:07;;;;;;;13.77;3.47;;;;;;;29.55;43.19;98515.31;4971274;28;20207;-66
2022/09/28 07:34:38;;;;;;;5.43;2.90;;;;;;;29.46;44.23;98522.84;4971426;28;20199;-68
2022/09/28 07:37:05;;;;;;;3.43;2.70;;;;;;;29.52;45.37;98515.97;4977080;28;20191;-63
2022/09/28 07:41:10;;;;;;;9.83;2.90;;;;;;;29.55;44.25;98515.31;4977581;28;20191;-65
2022/09/28 07:42:18;;;;;;;6.60;2.67;;;;;;;29.83;46.12;98510.75;4976165;28;20265;-63
2022/09/28 07:44:45;;;;;;;3.63;2.20;;;;;;;29.74;43.66;98510.06;4983684;28;20270;-63
2022/09/28 07:47:13;;;;;;;4.73;2.70;;;;;;;29.72;44.29;98515.06;4981515;28;20194;-64
2022/09/28 07:49:40;;;;;;;2.97;2.13;;;;;;;29.85;40.64;98519.41;4982925;28;20195;-63
2022/09/28 07:52:07;;;;;;;9.30;2.70;;;;;;;29.87;40.81;98525.34;4977717;28;20375;-63
2022/09/28 07:54:35;;;;;;;2.43;2.23;;;;;;;29.93;40.39;98525.91;4980935;28;20201;-64
2022/09/28 07:57:01;;;;;;;2.70;2.50;;;;;;;29.72;40.51;98526.03;4980964;28;20556;-67
2022/09/28 07:59:30;;;;;;;6.20;2.23;;;;;;;29.62;40.55;98522.97;4979193;28;20195;-65
2022/09/28 08:01:57;;;;;;;4.87;2.53;;;;;;;29.56;41.15;98522.38;4982527;28;20701;-65
2022/09/28 08:04:27;;;;;;;2.57;2.37;;;;;;;29.32;41.60;98516.91;4983370;28;20234;-64
2022/09/28 08:06:53;;;;;;;3.47;2.80;;;;;;;29.36;41.79;98506.88;4978626;28;20273;-65
2022/09/28 08:09:20;;;;;;;9.43;2.63;;;;;;;29.58;43.04;98511.91;4976587;28;21306;-68
2022/09/28 08:11:48;;;;;;;8.20;2.67;;;;;;;29.83;42.18;98521.69;4978645;28;20191;-64
2022/09/28 08:14:15;;;;;;;5.17;2.73;;;;;;;30.05;41.23;98517.66;4978725;28;20261;-63
2022/09/28 08:16:44;;;;;;;6.00;2.47;;;;;;;30.19;42.69;98520.84;4974146;28;20202;-64
2022/09/28 08:19:11;;;;;;;3.60;2.70;;;;;;;30.35;41.49;98519.75;4973041;28;20631;-64
2022/09/28 08:21:43;;;;;;;7.07;2.47;;;;;;;30.52;39.47;98526.88;4988288;28;20249;-65
2022/09/28 08:24:11;;;;;;;3.20;2.40;;;;;;;30.63;38.67;98523.28;4983063;28;20234;-67
2022/09/28 08:26:38;;;;;;;2.67;2.10;;;;;;;30.80;39.17;98523.00;4971917;28;20730;-65
2022/09/28 08:29:05;;;;;;;13.03;2.40;;;;;;;30.87;38.38;98528.66;4971097;28;20210;-67
2022/09/28 08:31:32;;;;;;;5.03;2.33;;;;;;;31.02;37.99;98527.88;4983339;28;20205;-67
2022/09/28 08:33:58;;;;;;;11.67;2.70;;;;;;;30.96;37.47;98526.56;4988086;28;20195;-64
2022/09/28 08:36:25;;;;;;;6.60;2.10;;;;;;;30.91;38.26;98528.75;4971765;28;20289;-61
2022/09/28 08:38:53;;;;;;;5.70;2.30;;;;;;;30.93;39.14;98523.72;4987750;28;20577;-66
2022/09/28 08:41:32;;;;;;;6.93;2.40;;;;;;;31.07;38.28;98519.38;4987872;28;20215;-65
2022/09/28 08:44:22;;;;;;;2.73;2.03;;;;;;;31.19;39.75;98522.03;4970971;28;20215;-64
2022/09/28 08:46:53;;;;;;;3.23;2.30;;;;;;;31.20;39.93;98515.41;4953492;28;20397;-64
2022/09/28 08:49:25;;;;;;;2.70;2.50;;;;;;;31.12;37.73;98521.88;4952037;28;20192;-64
2022/09/28 08:51:58;;;;;;;6.77;2.47;;;;;;;31.21;37.14;98522.50;4952660;28;20703;-64
2022/09/28 08:54:33;;;;;;;12.00;3.20;;;;;;;31.23;36.60;98524.94;4952490;28;20241;-63
2022/09/28 08:57:05;;;;;;;6.10;3.37;;;;;;;30.99;37.19;98512.13;4951906;28;20202;-69
2022/09/28 08:59:46;;;;;;;11.50;2.60;;;;;;;30.98;38.23;98516.03;4951212;28;20196;-65
2022/09/28 09:02:18;;;;;;;5.60;2.20;;;;;;;31.15;37.11;98515.66;4952693;28;20280;-64
2022/09/28 09:04:45;;;;;;;2.13;1.87;;;;;;;31.17;35.23;98524.38;4982044;28;20215;-64
2022/09/28 09:07:29;;;;;;;7.10;2.47;;;;;;;30.28;38.36;98505.03;4971345;28;20195;-67
2022/09/28 09:10:09;;;;;;;5.30;2.63;;;;;;;30.52;41.92;98497.53;4969002;28;20192;-65
2022/09/28 09:12:43;;;;;;;4.50;2.30;;;;;;;30.36;39.32;98507.63;4989312;28;20198;-65
2022/09/28 09:15:37;;;;;;;2.00;1.90;;;;;;;30.16;36.63;98513.28;4976048;28;20201;-65
2022/09/28 09:18:21;;;;;;;3.50;2.20;;;;;;;30.16;36.31;98500.41;4970735;28;20279;-66
2022/09/28 09:20:52;;;;;;;6.07;2.40;;;;;;;30.25;36.67;98512.00;4978173;28;20229;-65
2022/09/28 09:23:21;;;;;;;3.73;1.80;;;;;;;30.08;36.35;98506.78;4989260;28;20678;-65
2022/09/28 09:25:53;;;;;;;2.27;2.17;;;;;;;30.11;37.18;98511.59;4989487;28;20682;-68
2022/09/28 09:28:51;;;;;;;2.00;1.80;;;;;;;30.37;38.06;98508.44;4982485;28;20905;-65
2022/09/28 09:31:35;;;;;;;2.73;1.87;;;;;;;30.42;37.91;98500.75;4969099;28;20183;-68
2022/09/28 09:34:15;;;;;;;1.60;1.50;;;;;;;30.43;36.86;98502.38;4971429;28;20198;-65
2022/09/28 09:36:57;;;;;;;32.20;4.67;;;;;;;30.42;36.30;98508.97;4970249;28;20662;-67
2022/09/28 09:39:40;;;;;;;4.20;2.03;;;;;;;30.52;35.41;98494.78;4970122;28;20718;-66
2022/09/28 09:42:25;;;;;;;2.60;2.00;;;;;;;30.66;34.96;98497.88;4970221;28;20206;-67
2022/09/28 09:45:14;;;;;;;1.87;1.70;;;;;;;30.65;34.25;98504.53;4968713;28;20964;-64
2022/09/28 09:47:46;;;;;;;2.07;1.90;;;;;;;30.43;34.43;98507.84;4969082;28;20250;-69
2022/09/28 09:50:24;;;;;;;4.63;1.90;;;;;;;30.50;35.71;98502.53;4970612;28;20188;-65
2022/09/28 09:52:56;;;;;;;3.00;1.60;;;;;;;30.58;34.08;98504.34;4969489;28;20263;-64
2022/09/28 09:55:29;;;;;;;4.17;1.53;;;;;;;30.56;35.18;98487.44;4969544;28;20622;-64
2022/09/28 09:58:04;;;;;;;13.43;2.20;;;;;;;30.55;34.17;98494.09;4967280;28;20250;-66
2022/09/28 10:00:32;;;;;;;2.83;1.43;;;;;;;30.39;34.56;98493.25;4968254;28;20191;-70
2022/09/28 10:03:01;;;;;;;3.03;1.70;;;;;;;30.48;33.78;98493.06;4966364;28;20261;-63
2022/09/28 10:05:30;;;;;;;3.73;1.83;;;;;;;30.42;34.48;98495.28;4973760;28;20226;-70
2022/09/28 10:08:03;;;;;;;2.13;1.63;;;;;;;30.35;34.44;98486.88;4986793;28;20191;-68
2022/09/28 10:10:33;;;;;;;1.90;1.70;;;;;;;30.58;34.75;98482.41;4976039;28;20218;-70
2022/09/28 10:13:01;;;;;;;2.00;1.80;;;;;;;30.55;34.20;98488.59;4982418;28;20191;-63
2022/09/28 10:15:31;;;;;;;5.13;1.93;;;;;;;30.54;35.74;98477.97;4975441;28;20663;-64
2022/09/28 10:18:00;;;;;;;2.77;2.57;;;;;;;30.59;35.09;98475.78;4966736;28;20385;-64
2022/09/28 10:20:31;;;;;;;2.70;2.50;;;;;;;30.55;34.77;98483.13;4968344;28;20191;-66
2022/09/28 10:23:02;;;;;;;3.57;2.63;;;;;;;30.02;36.59;98474.50;4966596;28;20620;-68
2022/09/28 10:25:32;;;;;;;13.17;3.10;;;;;;;30.06;37.15;98475.41;4965966;28;20585;-69
2022/09/28 10:28:02;;;;;;;4.87;2.53;;;;;;;30.05;37.77;98473.81;4968065;28;20202;-72
2022/09/28 10:30:31;;;;;;;4.03;2.60;;;;;;;29.09;38.74;98464.59;4970030;28;20191;-65
2022/09/28 10:33:00;;;;;;;2.93;2.50;;;;;;;29.00;39.42;98463.09;4989968;28;20202;-66
2022/09/28 10:35:29;;;;;;;2.40;2.13;;;;;;;29.26;38.23;98469.03;4971747;28;20191;-69
2022/09/28 10:38:03;;;;;;;2.93;2.00;;;;;;;29.08;38.90;98460.22;4967795;28;20663;-69
2022/09/28 10:40:39;;;;;;;4.27;2.67;;;;;;;28.87;39.30;98462.25;4968634;28;20270;-65
2022/09/28 10:43:18;;;;;;;2.60;2.30;;;;;;;28.34;41.06;98436.94;4968155;28;20266;-62
2022/09/28 10:45:45;;;;;;;6.57;2.40;;;;;;;28.14;41.36;98441.28;4968788;28;20191;-63
2022/09/28 10:48:19;;;;;;;4.57;2.50;;;;;;;28.05;41.80;98450.72;4969919;28;20199;-65
2022/09/28 10:50:59;;;;;;;6.67;2.37;;;;;;;28.31;41.12;98435.69;4970930;28;20195;-66
2022/09/28 10:53:26;;;;;;;2.30;2.10;;;;;;;28.40;41.42;98436.38;4974734;28;20297;-62
2022/09/28 10:56:01;;;;;;;5.00;2.10;;;;;;;28.38;41.24;98440.59;4974547;28;20199;-66
2022/09/28 10:58:37;;;;;;;2.33;2.10;;;;;;;28.34;41.34;98442.41;4974536;28;20625;-62
2022/09/28 11:01:09;;;;;;;5.53;2.17;;;;;;;28.19;40.96;98423.91;4982564;28;20281;-67
2022/09/28 11:03:41;;;;;;;2.97;2.60;;;;;;;28.57;40.56;98425.31;4992779;28;20272;-66
2022/09/28 11:06:08;;;;;;;2.83;2.40;;;;;;;28.88;39.48;98413.84;4956006;28;20545;-62
2022/09/28 11:08:38;;;;;;;2.70;2.07;;;;;;;28.87;38.88;98423.19;4982910;28;20714;-63
2022/09/28 11:11:08;;;;;;;4.30;2.13;;;;;;;29.07;38.46;98417.63;4992477;28;20660;-66
2022/09/28 11:13:42;;;;;;;7.43;2.67;;;;;;;29.20;38.39;98413.72;4979682;28;20195;-65
2022/09/28 11:16:21;;;;;;;5.87;3.53;;;;;;;29.41;39.30;98415.53;4973673;28;20222;-64
2022/09/28 11:18:47;;;;;;;4.47;2.37;;;;;;;29.46;39.10;98402.41;4977866;28;20186;-64
2022/09/28 11:21:16;;;;;;;5.20;4.70;;;;;;;29.74;40.63;98397.81;4980117;28;20194;-67
2022/09/28 11:23:56;;;;;;;5.00;4.00;;;;;;;30.09;38.89;98398.78;4977433;28;20282;-63
2022/09/28 11:26:23;;;;;;;9.30;4.87;;;;;;;30.28;37.12;98401.72;4969105;28;20190;-65
2022/09/28 11:28:53;;;;;;;4.63;2.07;;;;;;;30.22;35.81;98408.59;4980680;28;20199;-62
2022/09/28 11:31:27;;;;;;;4.40;2.00;;;;;;;29.73;35.78;98396.22;4978100;28;20203;-67
2022/09/28 11:34:04;;;;;;;6.60;5.27;;;;;;;29.88;37.56;98386.47;4977341;28;20206;-64
2022/09/28 11:36:43;;;;;;;4.13;3.07;;;;;;;29.84;37.79;98391.84;4983041;28;20250;-67
2022/09/28 11:39:17;;;;;;;5.17;3.37;;;;;;;29.65;37.99;98378.00;4979927;28;20253;-63
2022/09/28 11:41:57;;;;;;;2.90;2.00;;;;;;;29.88;36.70;98376.28;4978330;28;20264;-63
2022/09/28 11:44:45;;;;;;;4.63;2.23;;;;;;;30.04;36.79;98385.34;4981360;28;20207;-63
2022/09/28 11:47:35;;;;;;;6.20;2.13;;;;;;;29.51;37.73;98376.75;4980621;28;20195;-63
2022/09/28 11:50:12;;;;;;;4.77;2.33;;;;;;;29.67;37.04;98374.91;4960226;28;20195;-64
2022/09/28 11:52:46;;;;;;;3.10;2.17;;;;;;;29.74;37.07;98375.91;4980257;28;20245;-63